State Park Place, Illinois
Current Conditions -  °F | °C
As of 10:19 AM on Thursday 18 Dec 2014 (Local Time) from KBLV Reporting Station
Unknown Precip Unknown Precip  
Wind Chill: 32°   Ceiling: 1000
Heat Index: 32°   Visibility: 10mi
Dew Point: 28°   Wind: 3mph
Humidity: 87%   Direction: 70°ENE
Pressure: 30.31"   Gusts: NA
Location:  38.6902°N, 89.9816°W
Report Text: KBLV 181619Z AUTO 07003KT 10SM UP OVC010 00/M02 A3031 RMK AO2
Loading
Personal Weather Stations






























Interactive Weather Map New forecast layout! Learn more

10-Day Weather Forecast

Advertisements
Track Severe Weather on mobile